sensor_id;sensor_type;location;lat;lon;timestamp;pressure;altitude;pressure_sealevel;temperature;humidity
12799;BME280;19250;42.646;26.980;2022-09-30T00:00:43;98522.75;;;19.43;100.00
12799;BME280;19250;42.646;26.980;2022-09-30T00:03:10;98545.84;;;19.58;100.00
12799;BME280;19250;42.646;26.980;2022-09-30T00:05:38;98549.91;;;19.30;100.00
12799;BME280;19250;42.646;26.980;2022-09-30T00:08:06;98538.78;;;19.02;100.00
12799;BME280;19250;42.646;26.980;2022-09-30T00:10:33;98541.97;;;19.17;100.00
12799;BME280;19250;42.646;26.980;2022-09-30T00:13:00;98534.44;;;19.01;100.00
12799;BME280;19250;42.646;26.980;2022-09-30T00:15:28;98538.09;;;19.07;100.00
12799;BME280;19250;42.646;26.980;2022-09-30T00:17:57;98543.34;;;19.44;100.00
12799;BME280;19250;42.646;26.980;2022-09-30T00:20:25;98551.34;;;19.99;100.00
12799;BME280;19250;42.646;26.980;2022-09-30T00:22:52;98553.88;;;20.42;100.00
12799;BME280;19250;42.646;26.980;2022-09-30T00:25:19;98550.72;;;20.56;100.00
12799;BME280;19250;42.646;26.980;2022-09-30T00:27:47;98546.72;;;20.71;100.00
12799;BME280;19250;42.646;26.980;2022-09-30T00:30:14;98562.38;;;20.80;100.00
12799;BME280;19250;42.646;26.980;2022-09-30T00:32:41;98562.28;;;21.10;98.65
12799;BME280;19250;42.646;26.980;2022-09-30T00:35:10;98537.88;;;21.10;97.75
12799;BME280;19250;42.646;26.980;2022-09-30T00:37:38;98553.09;;;21.11;97.66
12799;BME280;19250;42.646;26.980;2022-09-30T00:40:06;98559.22;;;21.06;97.40
12799;BME280;19250;42.646;26.980;2022-09-30T00:42:34;98560.50;;;20.81;99.50
12799;BME280;19250;42.646;26.980;2022-09-30T00:45:06;98561.69;;;21.08;97.73
12799;BME280;19250;42.646;26.980;2022-09-30T00:47:43;98573.03;;;21.28;96.01
12799;BME280;19250;42.646;26.980;2022-09-30T00:50:27;98576.69;;;21.22;96.26
12799;BME280;19250;42.646;26.980;2022-09-30T00:53:01;98583.28;;;21.03;98.21
12799;BME280;19250;42.646;26.980;2022-09-30T00:55:35;98581.81;;;20.77;98.86
12799;BME280;19250;42.646;26.980;2022-09-30T00:58:07;98574.88;;;20.70;99.72
12799;BME280;19250;42.646;26.980;2022-09-30T01:00:36;98574.53;;;20.89;98.43
12799;BME280;19250;42.646;26.980;2022-09-30T01:03:05;98570.28;;;20.82;98.70
12799;BME280;19250;42.646;26.980;2022-09-30T01:05:34;98595.16;;;20.90;97.81
12799;BME280;19250;42.646;26.980;2022-09-30T01:08:04;98501.63;;;20.23;95.93
12799;BME280;19250;42.646;26.980;2022-09-30T01:10:33;98609.38;;;20.74;93.80
12799;BME280;19250;42.646;26.980;2022-09-30T01:13:00;98600.09;;;20.82;92.79
12799;BME280;19250;42.646;26.980;2022-09-30T01:15:38;98600.78;;;20.77;91.72
12799;BME280;19250;42.646;26.980;2022-09-30T01:18:16;98603.84;;;20.69;91.56
12799;BME280;19250;42.646;26.980;2022-09-30T01:21:24;98602.19;;;20.56;92.54
12799;BME280;19250;42.646;26.980;2022-09-30T01:24:24;98605.69;;;19.97;96.42
12799;BME280;19250;42.646;26.980;2022-09-30T01:27:09;98602.72;;;19.08;100.00
12799;BME280;19250;42.646;26.980;2022-09-30T01:30:02;98603.78;;;19.68;100.00
12799;BME280;19250;42.646;26.980;2022-09-30T01:35:43;98581.38;;;19.79;99.14
12799;BME280;19250;42.646;26.980;2022-09-30T01:38:25;98459.22;;;19.16;97.83
12799;BME280;19250;42.646;26.980;2022-09-30T01:41:01;98598.53;;;20.03;98.08
12799;BME280;19250;42.646;26.980;2022-09-30T01:43:39;98606.25;;;19.70;100.00
12799;BME280;19250;42.646;26.980;2022-09-30T01:46:19;98595.38;;;19.76;100.00
12799;BME280;19250;42.646;26.980;2022-09-30T01:48:52;98598.88;;;19.95;99.20
12799;BME280;19250;42.646;26.980;2022-09-30T01:51:30;98608.16;;;19.87;98.91
12799;BME280;19250;42.646;26.980;2022-09-30T01:54:02;98607.84;;;19.77;99.43
12799;BME280;19250;42.646;26.980;2022-09-30T01:56:34;98618.75;;;19.52;100.00
12799;BME280;19250;42.646;26.980;2022-09-30T01:59:06;98623.06;;;19.35;100.00
12799;BME280;19250;42.646;26.980;2022-09-30T02:01:37;98629.72;;;19.33;100.00
12799;BME280;19250;42.646;26.980;2022-09-30T02:04:11;98626.09;;;19.64;100.00
12799;BME280;19250;42.646;26.980;2022-09-30T02:06:45;98616.78;;;19.78;100.00
12799;BME280;19250;42.646;26.980;2022-09-30T02:09:17;98632.84;;;19.91;100.00
12799;BME280;19250;42.646;26.980;2022-09-30T02:11:47;98629.25;;;19.79;100.00
12799;BME280;19250;42.646;26.980;2022-09-30T02:14:17;98627.69;;;19.71;100.00
12799;BME280;19250;42.646;26.980;2022-09-30T02:16:48;98611.31;;;19.84;100.00
12799;BME280;19250;42.646;26.980;2022-09-30T02:19:19;98624.00;;;19.84;100.00
12799;BME280;19250;42.646;26.980;2022-09-30T02:21:55;98624.69;;;19.43;100.00
12799;BME280;19250;42.646;26.980;2022-09-30T02:24:27;98592.13;;;18.64;100.00
12799;BME280;19250;42.646;26.980;2022-09-30T02:26:57;98633.13;;;19.28;100.00
12799;BME280;19250;42.646;26.980;2022-09-30T02:29:28;98633.03;;;19.41;100.00
12799;BME280;19250;42.646;26.980;2022-09-30T02:32:00;98628.81;;;19.45;100.00
12799;BME280;19250;42.646;26.980;2022-09-30T02:34:31;98630.34;;;19.60;100.00
12799;BME280;19250;42.646;26.980;2022-09-30T02:37:08;98637.81;;;19.58;100.00
12799;BME280;19250;42.646;26.980;2022-09-30T02:39:42;98568.16;;;19.17;100.00
12799;BME280;19250;42.646;26.980;2022-09-30T02:42:13;98639.66;;;19.39;100.00
12799;BME280;19250;42.646;26.980;2022-09-30T02:44:45;98637.81;;;19.58;100.00
12799;BME280;19250;42.646;26.980;2022-09-30T02:47:16;98632.66;;;19.74;100.00
12799;BME280;19250;42.646;26.980;2022-09-30T02:49:52;98637.56;;;18.98;100.00
12799;BME280;19250;42.646;26.980;2022-09-30T02:52:30;98642.41;;;19.14;100.00
12799;BME280;19250;42.646;26.980;2022-09-30T02:55:09;98623.91;;;19.11;100.00
12799;BME280;19250;42.646;26.980;2022-09-30T02:57:52;98638.75;;;19.02;100.00
12799;BME280;19250;42.646;26.980;2022-09-30T03:00:22;98648.66;;;18.21;100.00
12799;BME280;19250;42.646;26.980;2022-09-30T03:02:54;98651.59;;;17.68;100.00
12799;BME280;19250;42.646;26.980;2022-09-30T03:05:23;98645.44;;;17.99;100.00
12799;BME280;19250;42.646;26.980;2022-09-30T03:07:52;98639.78;;;18.45;100.00
12799;BME280;19250;42.646;26.980;2022-09-30T03:10:19;98569.16;;;18.17;100.00
12799;BME280;19250;42.646;26.980;2022-09-30T03:13:01;98635.94;;;18.90;100.00
12799;BME280;19250;42.646;26.980;2022-09-30T03:15:41;98643.72;;;19.05;100.00
12799;BME280;19250;42.646;26.980;2022-09-30T03:18:39;98630.88;;;19.00;100.00
12799;BME280;19250;42.646;26.980;2022-09-30T03:21:22;98613.53;;;18.65;100.00
12799;BME280;19250;42.646;26.980;2022-09-30T03:26:55;98639.19;;;18.99;100.00
12799;BME280;19250;42.646;26.980;2022-09-30T03:29:33;98645.38;;;19.06;100.00
12799;BME280;19250;42.646;26.980;2022-09-30T03:32:11;98640.91;;;19.18;100.00
12799;BME280;19250;42.646;26.980;2022-09-30T03:34:59;98634.91;;;19.16;100.00
12799;BME280;19250;42.646;26.980;2022-09-30T03:37:33;98638.59;;;19.22;100.00
12799;BME280;19250;42.646;26.980;2022-09-30T03:40:09;98624.31;;;19.15;100.00
12799;BME280;19250;42.646;26.980;2022-09-30T03:42:44;98645.94;;;19.33;100.00
12799;BME280;19250;42.646;26.980;2022-09-30T03:45:18;98646.03;;;19.26;100.00
12799;BME280;19250;42.646;26.980;2022-09-30T03:47:52;98646.09;;;19.20;100.00
12799;BME280;19250;42.646;26.980;2022-09-30T03:50:22;98647.81;;;19.14;100.00
12799;BME280;19250;42.646;26.980;2022-09-30T03:52:51;98656.34;;;19.11;100.00
12799;BME280;19250;42.646;26.980;2022-09-30T03:55:21;98653.63;;;19.11;100.00
12799;BME280;19250;42.646;26.980;2022-09-30T03:57:50;98642.53;;;19.01;100.00
12799;BME280;19250;42.646;26.980;2022-09-30T04:00:18;98665.22;;;19.18;100.00
12799;BME280;19250;42.646;26.980;2022-09-30T04:02:45;98660.44;;;19.20;100.00
12799;BME280;19250;42.646;26.980;2022-09-30T04:05:13;98672.63;;;19.29;100.00
12799;BME280;19250;42.646;26.980;2022-09-30T04:07:40;98670.72;;;19.30;100.00
12799;BME280;19250;42.646;26.980;2022-09-30T04:10:08;98669.44;;;19.14;100.00
12799;BME280;19250;42.646;26.980;2022-09-30T04:12:36;98678.31;;;19.21;100.00
12799;BME280;19250;42.646;26.980;2022-09-30T04:15:04;98621.63;;;18.65;100.00
12799;BME280;19250;42.646;26.980;2022-09-30T04:17:32;98610.53;;;18.42;100.00
12799;BME280;19250;42.646;26.980;2022-09-30T04:19:59;98676.38;;;18.79;100.00
12799;BME280;19250;42.646;26.980;2022-09-30T04:22:26;98684.34;;;18.67;100.00
12799;BME280;19250;42.646;26.980;2022-09-30T04:24:53;98673.44;;;18.56;100.00
12799;BME280;19250;42.646;26.980;2022-09-30T04:27:21;98690.34;;;18.31;100.00
12799;BME280;19250;42.646;26.980;2022-09-30T04:29:49;98700.28;;;18.37;100.00
12799;BME280;19250;42.646;26.980;2022-09-30T04:32:16;98700.94;;;18.26;100.00
12799;BME280;19250;42.646;26.980;2022-09-30T04:34:44;98695.09;;;18.36;100.00
12799;BME280;19250;42.646;26.980;2022-09-30T04:37:11;98694.91;;;18.37;100.00
12799;BME280;19250;42.646;26.980;2022-09-30T04:39:38;98672.97;;;18.21;100.00
12799;BME280;19250;42.646;26.980;2022-09-30T04:42:06;98698.97;;;18.53;100.00
12799;BME280;19250;42.646;26.980;2022-09-30T04:44:34;98698.69;;;18.23;100.00
12799;BME280;19250;42.646;26.980;2022-09-30T04:47:03;98685.50;;;18.46;100.00
12799;BME280;19250;42.646;26.980;2022-09-30T04:49:31;98699.72;;;19.23;100.00
12799;BME280;19250;42.646;26.980;2022-09-30T04:51:58;98699.00;;;19.09;100.00
12799;BME280;19250;42.646;26.980;2022-09-30T04:54:25;98707.41;;;19.50;100.00
12799;BME280;19250;42.646;26.980;2022-09-30T04:56:52;98715.09;;;20.08;100.00
12799;BME280;19250;42.646;26.980;2022-09-30T04:59:20;98696.53;;;20.30;100.00
12799;BME280;19250;42.646;26.980;2022-09-30T05:01:47;98714.41;;;20.79;100.00
12799;BME280;19250;42.646;26.980;2022-09-30T05:04:16;98720.44;;;21.22;100.00
12799;BME280;19250;42.646;26.980;2022-09-30T05:06:43;98727.50;;;21.35;100.00
12799;BME280;19250;42.646;26.980;2022-09-30T05:09:10;98733.66;;;21.53;100.00
12799;BME280;19250;42.646;26.980;2022-09-30T05:11:37;98715.47;;;21.65;99.06
12799;BME280;19250;42.646;26.980;2022-09-30T05:14:06;98727.41;;;21.99;96.19
12799;BME280;19250;42.646;26.980;2022-09-30T05:16:34;98723.09;;;22.27;94.29
12799;BME280;19250;42.646;26.980;2022-09-30T05:19:02;98719.00;;;22.52;92.60
12799;BME280;19250;42.646;26.980;2022-09-30T05:21:30;98720.38;;;22.95;91.39
12799;BME280;19250;42.646;26.980;2022-09-30T05:23:58;98726.91;;;23.10;88.99
12799;BME280;19250;42.646;26.980;2022-09-30T05:26:26;98724.22;;;23.27;88.10
12799;BME280;19250;42.646;26.980;2022-09-30T05:28:53;98728.28;;;23.41;87.92
12799;BME280;19250;42.646;26.980;2022-09-30T05:31:21;98716.88;;;23.44;86.05
12799;BME280;19250;42.646;26.980;2022-09-30T05:33:48;98713.16;;;23.50;84.84
12799;BME280;19250;42.646;26.980;2022-09-30T05:36:15;98714.47;;;23.31;84.26
12799;BME280;19250;42.646;26.980;2022-09-30T05:38:44;98723.00;;;23.51;83.77
12799;BME280;19250;42.646;26.980;2022-09-30T05:41:12;98725.38;;;24.03;80.28
12799;BME280;19250;42.646;26.980;2022-09-30T05:43:41;98731.44;;;24.10;78.95
12799;BME280;19250;42.646;26.980;2022-09-30T05:46:10;98732.94;;;24.01;78.20
12799;BME280;19250;42.646;26.980;2022-09-30T05:48:37;98739.34;;;23.90;77.45
12799;BME280;19250;42.646;26.980;2022-09-30T05:51:04;98734.47;;;23.92;78.14
12799;BME280;19250;42.646;26.980;2022-09-30T05:53:34;98762.19;;;23.89;78.04
12799;BME280;19250;42.646;26.980;2022-09-30T05:56:03;98768.72;;;23.38;81.41
12799;BME280;19250;42.646;26.980;2022-09-30T05:58:30;98770.31;;;23.50;80.56
12799;BME280;19250;42.646;26.980;2022-09-30T06:01:03;98775.03;;;23.10;83.24
12799;BME280;19250;42.646;26.980;2022-09-30T06:03:32;98774.53;;;23.41;79.51
12799;BME280;19250;42.646;26.980;2022-09-30T06:05:59;98787.81;;;23.54;80.32
12799;BME280;19250;42.646;26.980;2022-09-30T06:08:26;98779.19;;;23.96;75.54
12799;BME280;19250;42.646;26.980;2022-09-30T06:10:54;98780.31;;;23.61;80.07
12799;BME280;19250;42.646;26.980;2022-09-30T06:13:24;98784.69;;;23.79;77.44
12799;BME280;19250;42.646;26.980;2022-09-30T06:15:55;98784.41;;;24.14;73.94
12799;BME280;19250;42.646;26.980;2022-09-30T06:18:23;98776.94;;;24.26;74.40
12799;BME280;19250;42.646;26.980;2022-09-30T06:20:50;98798.81;;;24.31;74.11
12799;BME280;19250;42.646;26.980;2022-09-30T06:23:19;98806.56;;;24.39;73.68
12799;BME280;19250;42.646;26.980;2022-09-30T06:25:49;98815.69;;;24.93;71.76
12799;BME280;19250;42.646;26.980;2022-09-30T06:28:16;98812.56;;;25.33;66.95
12799;BME280;19250;42.646;26.980;2022-09-30T06:30:45;98808.97;;;25.54;67.53
12799;BME280;19250;42.646;26.980;2022-09-30T06:33:13;98811.00;;;26.01;61.17
12799;BME280;19250;42.646;26.980;2022-09-30T06:35:41;98810.09;;;25.53;63.81
12799;BME280;19250;42.646;26.980;2022-09-30T06:38:08;98811.78;;;25.59;66.38
12799;BME280;19250;42.646;26.980;2022-09-30T06:40:35;98809.59;;;25.98;64.50
12799;BME280;19250;42.646;26.980;2022-09-30T06:43:03;98815.81;;;26.72;60.36
12799;BME280;19250;42.646;26.980;2022-09-30T06:45:31;98762.25;;;27.07;56.50
12799;BME280;19250;42.646;26.980;2022-09-30T06:48:03;98817.88;;;27.22;56.57
12799;BME280;19250;42.646;26.980;2022-09-30T06:50:32;98814.59;;;27.15;55.61
12799;BME280;19250;42.646;26.980;2022-09-30T06:53:00;98811.09;;;27.50;56.46
12799;BME280;19250;42.646;26.980;2022-09-30T06:55:28;98812.22;;;27.59;56.19
12799;BME280;19250;42.646;26.980;2022-09-30T06:57:56;98814.41;;;28.07;52.49
12799;BME280;19250;42.646;26.980;2022-09-30T07:00:24;98813.03;;;28.25;53.63
12799;BME280;19250;42.646;26.980;2022-09-30T07:02:53;98822.53;;;28.58;51.61
12799;BME280;19250;42.646;26.980;2022-09-30T07:05:23;98831.19;;;28.90;48.80
12799;BME280;19250;42.646;26.980;2022-09-30T07:07:51;98832.69;;;29.22;48.33
12799;BME280;19250;42.646;26.980;2022-09-30T07:10:19;98839.09;;;29.56;48.10
12799;BME280;19250;42.646;26.980;2022-09-30T07:12:49;98839.91;;;29.02;48.15
12799;BME280;19250;42.646;26.980;2022-09-30T07:15:16;98841.66;;;28.88;51.86
12799;BME280;19250;42.646;26.980;2022-09-30T07:17:49;98837.88;;;28.74;52.06
12799;BME280;19250;42.646;26.980;2022-09-30T07:20:16;98843.09;;;28.66;50.03
12799;BME280;19250;42.646;26.980;2022-09-30T07:22:45;98841.28;;;28.16;54.15
12799;BME280;19250;42.646;26.980;2022-09-30T07:25:13;98828.59;;;28.35;53.16
12799;BME280;19250;42.646;26.980;2022-09-30T07:27:42;98829.63;;;28.64;52.19
12799;BME280;19250;42.646;26.980;2022-09-30T07:30:10;98831.13;;;28.16;53.68
12799;BME280;19250;42.646;26.980;2022-09-30T07:32:37;98824.22;;;28.29;55.93
12799;BME280;19250;42.646;26.980;2022-09-30T07:35:05;98836.09;;;29.03;51.62
12799;BME280;19250;42.646;26.980;2022-09-30T07:37:32;98839.91;;;29.02;50.76
12799;BME280;19250;42.646;26.980;2022-09-30T07:40:03;98827.00;;;28.24;54.40
12799;BME280;19250;42.646;26.980;2022-09-30T07:42:30;98832.78;;;26.79;62.06
12799;BME280;19250;42.646;26.980;2022-09-30T07:44:58;98810.28;;;27.60;58.63
12799;BME280;19250;42.646;26.980;2022-09-30T07:47:26;98842.88;;;27.56;58.71
12799;BME280;19250;42.646;26.980;2022-09-30T07:49:53;98842.84;;;27.41;61.00
12799;BME280;19250;42.646;26.980;2022-09-30T07:52:21;98771.38;;;27.63;58.30
12799;BME280;19250;42.646;26.980;2022-09-30T07:54:48;98850.44;;;27.19;65.70
12799;BME280;19250;42.646;26.980;2022-09-30T07:57:16;98838.81;;;27.64;64.56
12799;BME280;19250;42.646;26.980;2022-09-30T07:59:44;98846.72;;;28.36;60.21
12799;BME280;19250;42.646;26.980;2022-09-30T08:02:13;98853.31;;;27.89;63.90
12799;BME280;19250;42.646;26.980;2022-09-30T08:04:41;98853.88;;;28.01;61.29
12799;BME280;19250;42.646;26.980;2022-09-30T08:07:08;98855.28;;;28.19;59.44
12799;BME280;19250;42.646;26.980;2022-09-30T08:09:35;98853.88;;;27.86;62.03
12799;BME280;19250;42.646;26.980;2022-09-30T08:12:03;98787.50;;;28.30;57.32
12799;BME280;19250;42.646;26.980;2022-09-30T08:14:32;98852.00;;;28.07;61.67
12799;BME280;19250;42.646;26.980;2022-09-30T08:16:59;98860.66;;;28.70;59.09
12799;BME280;19250;42.646;26.980;2022-09-30T08:19:28;98841.25;;;27.60;64.46
12799;BME280;19250;42.646;26.980;2022-09-30T08:21:55;98864.19;;;29.44;55.48
12799;BME280;19250;42.646;26.980;2022-09-30T08:24:24;98837.47;;;28.06;60.18
12799;BME280;19250;42.646;26.980;2022-09-30T08:26:52;98839.34;;;28.01;61.40
12799;BME280;19250;42.646;26.980;2022-09-30T08:29:20;98836.41;;;29.46;52.57
12799;BME280;19250;42.646;26.980;2022-09-30T08:31:48;98854.53;;;29.47;52.06
12799;BME280;19250;42.646;26.980;2022-09-30T08:34:16;98870.72;;;28.94;56.72
12799;BME280;19250;42.646;26.980;2022-09-30T08:36:43;98887.22;;;28.84;59.10
12799;BME280;19250;42.646;26.980;2022-09-30T08:39:11;98869.94;;;28.89;57.83
12799;BME280;19250;42.646;26.980;2022-09-30T08:41:48;98870.97;;;30.24;50.27
12799;BME280;19250;42.646;26.980;2022-09-30T08:44:28;98835.50;;;29.94;53.29
12799;BME280;19250;42.646;26.980;2022-09-30T08:47:04;98867.19;;;31.20;44.82
12799;BME280;19250;42.646;26.980;2022-09-30T08:49:44;98873.53;;;31.40;44.08
12799;BME280;19250;42.646;26.980;2022-09-30T08:52:18;98877.59;;;31.05;46.60
12799;BME280;19250;42.646;26.980;2022-09-30T08:54:51;98874.91;;;31.61;44.46
12799;BME280;19250;42.646;26.980;2022-09-30T08:57:19;98882.03;;;31.80;42.52
12799;BME280;19250;42.646;26.980;2022-09-30T08:59:49;98884.13;;;31.33;43.73
12799;BME280;19250;42.646;26.980;2022-09-30T09:02:22;98883.38;;;31.27;44.26
12799;BME280;19250;42.646;26.980;2022-09-30T09:04:53;98872.72;;;32.14;42.34
12799;BME280;19250;42.646;26.980;2022-09-30T09:07:44;98882.44;;;33.39;39.34
12799;BME280;19250;42.646;26.980;2022-09-30T09:10:26;98859.66;;;31.07;43.02
12799;BME280;19250;42.646;26.980;2022-09-30T09:12:58;98878.28;;;30.68;47.27
12799;BME280;19250;42.646;26.980;2022-09-30T09:15:40;98878.00;;;31.36;46.27
12799;BME280;19250;42.646;26.980;2022-09-30T09:18:26;98849.50;;;32.88;39.95
12799;BME280;19250;42.646;26.980;2022-09-30T09:20:56;98850.59;;;34.22;35.84
12799;BME280;19250;42.646;26.980;2022-09-30T09:23:25;98875.16;;;34.01;36.41
12799;BME280;19250;42.646;26.980;2022-09-30T09:25:53;98879.16;;;34.09;37.12
12799;BME280;19250;42.646;26.980;2022-09-30T09:28:32;98889.63;;;35.04;36.36
12799;BME280;19250;42.646;26.980;2022-09-30T09:31:02;98868.56;;;35.60;33.42
12799;BME280;19250;42.646;26.980;2022-09-30T09:33:34;98890.53;;;34.29;35.77
12799;BME280;19250;42.646;26.980;2022-09-30T09:36:13;98884.97;;;34.21;37.71
12799;BME280;19250;42.646;26.980;2022-09-30T09:38:59;98884.81;;;34.87;35.70
12799;BME280;19250;42.646;26.980;2022-09-30T09:41:36;98878.91;;;33.11;40.04
12799;BME280;19250;42.646;26.980;2022-09-30T09:44:10;98835.03;;;33.68;37.84
12799;BME280;19250;42.646;26.980;2022-09-30T09:46:43;98880.94;;;33.69;39.09
12799;BME280;19250;42.646;26.980;2022-09-30T09:49:41;98879.59;;;32.62;41.11
12799;BME280;19250;42.646;26.980;2022-09-30T09:52:35;98883.19;;;31.61;45.55
12799;BME280;19250;42.646;26.980;2022-09-30T09:55:05;98884.97;;;33.49;40.34
12799;BME280;19250;42.646;26.980;2022-09-30T09:57:36;98881.03;;;35.14;35.54
12799;BME280;19250;42.646;26.980;2022-09-30T10:00:07;98852.16;;;34.36;36.01
12799;BME280;19250;42.646;26.980;2022-09-30T10:03:00;98883.41;;;35.64;32.91
12799;BME280;19250;42.646;26.980;2022-09-30T10:05:30;98884.09;;;35.04;33.55
12799;BME280;19250;42.646;26.980;2022-09-30T10:08:14;98882.50;;;35.12;33.26
12799;BME280;19250;42.646;26.980;2022-09-30T10:10:47;98880.41;;;35.26;33.17
12799;BME280;19250;42.646;26.980;2022-09-30T10:13:20;98891.34;;;36.42;31.11
12799;BME280;19250;42.646;26.980;2022-09-30T10:15:49;98875.81;;;35.13;33.08
12799;BME280;19250;42.646;26.980;2022-09-30T10:18:24;98882.38;;;35.25;32.46
12799;BME280;19250;42.646;26.980;2022-09-30T10:20:56;98889.28;;;34.97;33.33
12799;BME280;19250;42.646;26.980;2022-09-30T10:23:29;98885.81;;;35.31;32.21
12799;BME280;19250;42.646;26.980;2022-09-30T10:25:59;98855.00;;;35.49;32.79
12799;BME280;19250;42.646;26.980;2022-09-30T10:28:31;98855.81;;;36.74;30.64
12799;BME280;19250;42.646;26.980;2022-09-30T10:31:02;98868.84;;;38.23;28.44
12799;BME280;19250;42.646;26.980;2022-09-30T10:33:34;98866.81;;;37.79;29.22
12799;BME280;19250;42.646;26.980;2022-09-30T10:36:10;98876.25;;;36.14;30.53
12799;BME280;19250;42.646;26.980;2022-09-30T10:38:46;98876.22;;;35.97;31.36
12799;BME280;19250;42.646;26.980;2022-09-30T10:41:29;98856.16;;;35.83;31.64
12799;BME280;19250;42.646;26.980;2022-09-30T10:43:59;98858.19;;;33.72;34.76
12799;BME280;19250;42.646;26.980;2022-09-30T10:46:29;98860.41;;;35.89;32.04
12799;BME280;19250;42.646;26.980;2022-09-30T10:48:58;98829.34;;;33.51;35.23
12799;BME280;19250;42.646;26.980;2022-09-30T10:51:36;98854.59;;;33.71;35.73
12799;BME280;19250;42.646;26.980;2022-09-30T10:54:04;98840.63;;;33.40;35.54
12799;BME280;19250;42.646;26.980;2022-09-30T10:56:34;98855.16;;;34.04;35.01
12799;BME280;19250;42.646;26.980;2022-09-30T10:59:08;98831.06;;;35.06;32.81
12799;BME280;19250;42.646;26.980;2022-09-30T11:01:47;98839.78;;;31.85;36.39
12799;BME280;19250;42.646;26.980;2022-09-30T11:04:23;98791.19;;;32.76;35.61
12799;BME280;19250;42.646;26.980;2022-09-30T11:07:00;98848.50;;;33.83;33.24
12799;BME280;19250;42.646;26.980;2022-09-30T11:09:34;98841.91;;;33.07;35.32
12799;BME280;19250;42.646;26.980;2022-09-30T11:12:10;98856.88;;;32.93;33.96
12799;BME280;19250;42.646;26.980;2022-09-30T11:14:44;98848.59;;;32.19;35.32
12799;BME280;19250;42.646;26.980;2022-09-30T11:17:24;98850.22;;;35.16;31.51
12799;BME280;19250;42.646;26.980;2022-09-30T11:20:02;98844.44;;;32.35;34.71
12799;BME280;19250;42.646;26.980;2022-09-30T11:22:42;98849.22;;;34.64;31.55
12799;BME280;19250;42.646;26.980;2022-09-30T11:25:13;98845.75;;;34.27;31.54
12799;BME280;19250;42.646;26.980;2022-09-30T11:28:01;98837.44;;;32.70;33.77
12799;BME280;19250;42.646;26.980;2022-09-30T11:30:36;98808.69;;;34.15;31.20
12799;BME280;19250;42.646;26.980;2022-09-30T11:33:24;98852.47;;;33.55;31.45
12799;BME280;19250;42.646;26.980;2022-09-30T11:36:00;98854.28;;;35.18;29.46
12799;BME280;19250;42.646;26.980;2022-09-30T11:38:44;98856.59;;;35.25;29.56
12799;BME280;19250;42.646;26.980;2022-09-30T11:41:20;98862.66;;;34.26;30.62
12799;BME280;19250;42.646;26.980;2022-09-30T11:43:55;98827.44;;;34.18;30.54
12799;BME280;19250;42.646;26.980;2022-09-30T11:46:36;98861.38;;;36.01;28.77
12799;BME280;19250;42.646;26.980;2022-09-30T11:49:40;98859.88;;;34.04;30.13
12799;BME280;19250;42.646;26.980;2022-09-30T11:52:17;98855.03;;;35.84;27.99
12799;BME280;19250;42.646;26.980;2022-09-30T11:55:08;98848.78;;;36.30;27.24
12799;BME280;19250;42.646;26.980;2022-09-30T11:57:46;98861.38;;;35.93;26.91
12799;BME280;19250;42.646;26.980;2022-09-30T12:00:17;98851.91;;;36.75;26.23
12799;BME280;19250;42.646;26.980;2022-09-30T12:02:47;98844.97;;;35.14;28.11
12799;BME280;19250;42.646;26.980;2022-09-30T12:05:18;98850.78;;;34.03;30.18
12799;BME280;19250;42.646;26.980;2022-09-30T12:07:49;98846.66;;;36.18;27.54
12799;BME280;19250;42.646;26.980;2022-09-30T12:10:23;98844.72;;;35.76;26.81
12799;BME280;19250;42.646;26.980;2022-09-30T12:12:55;98844.50;;;34.42;28.55
12799;BME280;19250;42.646;26.980;2022-09-30T12:15:25;98836.19;;;33.89;29.67
12799;BME280;19250;42.646;26.980;2022-09-30T12:17:56;98844.84;;;35.36;27.48
12799;BME280;19250;42.646;26.980;2022-09-30T12:20:32;98777.31;;;33.97;29.19
12799;BME280;19250;42.646;26.980;2022-09-30T12:23:13;98851.44;;;36.64;26.16
12799;BME280;19250;42.646;26.980;2022-09-30T12:25:52;98846.88;;;38.42;24.47
12799;BME280;19250;42.646;26.980;2022-09-30T12:28:32;98852.38;;;37.15;24.90
12799;BME280;19250;42.646;26.980;2022-09-30T12:31:32;98849.81;;;38.13;24.41
12799;BME280;19250;42.646;26.980;2022-09-30T12:34:15;98843.34;;;36.80;25.12
12799;BME280;19250;42.646;26.980;2022-09-30T12:37:02;98851.75;;;37.09;24.86
12799;BME280;19250;42.646;26.980;2022-09-30T12:43:00;98853.09;;;36.94;25.26
12799;BME280;19250;42.646;26.980;2022-09-30T12:45:58;98849.91;;;35.34;27.65
12799;BME280;19250;42.646;26.980;2022-09-30T12:48:32;98848.28;;;37.12;26.45
12799;BME280;19250;42.646;26.980;2022-09-30T12:51:01;98855.56;;;38.98;23.67
12799;BME280;19250;42.646;26.980;2022-09-30T12:53:32;98813.91;;;38.11;24.37
12799;BME280;19250;42.646;26.980;2022-09-30T12:56:03;98871.78;;;36.30;26.38
12799;BME280;19250;42.646;26.980;2022-09-30T12:58:34;98854.91;;;36.44;25.87
12799;BME280;19250;42.646;26.980;2022-09-30T13:01:10;98857.84;;;37.02;25.66
12799;BME280;19250;42.646;26.980;2022-09-30T13:03:50;98837.84;;;37.09;25.13
12799;BME280;19250;42.646;26.980;2022-09-30T13:06:19;98858.44;;;40.17;22.45
12799;BME280;19250;42.646;26.980;2022-09-30T13:09:05;98852.28;;;42.49;20.78
12799;BME280;19250;42.646;26.980;2022-09-30T13:11:42;98862.16;;;39.17;22.71
12799;BME280;19250;42.646;26.980;2022-09-30T13:14:30;98864.03;;;41.58;21.60
12799;BME280;19250;42.646;26.980;2022-09-30T13:17:23;98866.16;;;38.47;23.10
12799;BME280;19250;42.646;26.980;2022-09-30T13:19:53;98870.00;;;38.10;23.37
12799;BME280;19250;42.646;26.980;2022-09-30T13:25:14;98838.97;;;39.53;21.83
12799;BME280;19250;42.646;26.980;2022-09-30T13:27:43;98852.13;;;36.99;23.96